Airport View

Enter AWOS ICAO identifier for current METAR.

ex. KFNL

KGCD 101520Z AUTO 13003KT 10SM CLR 16/04 A3019 RMK AO2 T01550036

10 Aug 2020 15:25

Frequency: 118.375

Phone: 541-575-1122

Other Area AWOS: KBNO - KBKE - KLGD - KMEH

TAF KBNO 101137Z 1012/1112 VRB05KT P6SM SKC FM110100 28010KT P6SM SKC FM110500 VRB04KT P6SM SKC